Time;durP1;ratioP1;P1;durP2;ratioP2;P2;SDS_P1;SDS_P2;PMS_P1;PMS_P2;Temp;Humidity;BMP_temperature;BMP_pressure;BME280_temperature;BME280_humidity;BME280_pressure;Samples;Min_cycle;Max_cycle;Signal;HPM_P1;HPM_P2
2021/08/03 00:00:28;;;;;;;0.52;0.30;;;26.30;48.60;;;;;;5007565;28;20485;-64
2021/08/03 00:02:58;;;;;;;0.30;0.30;;;26.30;48.60;;;;;;5007987;28;20052;-64
2021/08/03 00:05:29;;;;;;;0.40;0.38;;;26.30;48.70;;;;;;5007619;28;20061;-64
2021/08/03 00:08:02;;;;;;;0.35;0.35;;;26.30;48.70;;;;;;5008165;28;20124;-64
2021/08/03 00:10:30;;;;;;;0.40;0.30;;;26.30;48.70;;;;;;5007651;28;20049;-64
2021/08/03 00:13:01;;;;;;;0.32;0.30;;;26.30;48.70;;;;;;5007565;28;20487;-64
2021/08/03 00:15:28;;;;;;;0.40;0.40;;;26.30;48.70;;;;;;5015061;28;20120;-64
2021/08/03 00:17:55;;;;;;;0.30;0.30;;;26.30;48.60;;;;;;5027504;28;20690;-64
2021/08/03 00:20:25;;;;;;;0.35;0.35;;;26.30;48.70;;;;;;5026939;28;20085;-64
2021/08/03 00:22:58;;;;;;;0.40;0.40;;;26.30;48.70;;;;;;5027311;28;20092;-64
2021/08/03 00:25:27;;;;;;;0.47;0.40;;;26.30;49.20;;;;;;5026989;28;20053;-64
2021/08/03 00:27:55;;;;;;;0.93;0.40;;;26.30;48.70;;;;;;5027578;28;20479;-64
2021/08/03 00:30:23;;;;;;;0.50;0.50;;;26.30;48.70;;;;;;5027003;28;20532;-64
2021/08/03 00:32:52;;;;;;;0.47;0.45;;;26.30;48.70;;;;;;5027130;28;20132;-64
2021/08/03 00:35:20;;;;;;;0.32;0.30;;;26.30;48.70;;;;;;5027318;28;20122;-64
2021/08/03 00:37:48;;;;;;;0.30;0.30;;;26.30;48.80;;;;;;5026848;28;20099;-64
2021/08/03 00:40:16;;;;;;;0.28;0.28;;;26.30;48.80;;;;;;5027106;28;20148;-64
2021/08/03 00:42:43;;;;;;;0.43;0.43;;;26.30;48.80;;;;;;5026664;28;20077;-64
2021/08/03 00:45:11;;;;;;;0.30;0.30;;;26.30;48.80;;;;;;5029832;28;20080;-64
2021/08/03 00:47:38;;;;;;;0.30;0.30;;;26.30;48.80;;;;;;5031288;28;20115;-64
2021/08/03 00:50:06;;;;;;;0.57;0.57;;;26.30;48.80;;;;;;5031266;28;20468;-64
2021/08/03 00:52:35;;;;;;;0.32;0.32;;;26.30;48.90;;;;;;5030942;28;20046;-64
2021/08/03 00:55:04;;;;;;;0.40;0.40;;;26.30;48.90;;;;;;5030875;28;20405;-64
2021/08/03 00:57:32;;;;;;;0.30;0.30;;;26.20;48.90;;;;;;5030838;28;20081;-64
2021/08/03 00:59:59;;;;;;;1.55;0.57;;;26.20;48.90;;;;;;5028225;28;20045;-64
2021/08/03 01:02:26;;;;;;;0.20;0.20;;;26.20;48.90;;;;;;5021512;28;20133;-64
2021/08/03 01:04:54;;;;;;;0.22;0.22;;;26.20;48.90;;;;;;5011680;28;20046;-64
2021/08/03 01:07:48;;;;;;;0.40;0.30;;;26.20;48.90;;;;;;5022993;28;20183;-64
2021/08/03 01:10:55;;;;;;;0.40;0.40;;;26.30;49.00;;;;;;5030895;28;20080;-64
2021/08/03 01:13:33;;;;;;;0.30;0.20;;;26.20;49.00;;;;;;5029287;28;20092;-64
2021/08/03 01:16:14;;;;;;;0.35;0.35;;;26.20;49.30;;;;;;5029664;28;20471;-64
2021/08/03 01:18:54;;;;;;;0.63;0.40;;;26.20;49.00;;;;;;5025336;28;20046;-64
2021/08/03 01:21:39;;;;;;;0.30;0.30;;;26.20;49.00;;;;;;5010437;28;20144;-64
2021/08/03 01:24:46;;;;;;;0.38;0.38;;;26.20;49.10;;;;;;5010577;28;20085;-64
2021/08/03 01:27:46;;;;;;;1.02;0.22;;;26.20;49.10;;;;;;5009737;28;20504;-64
2021/08/03 01:30:14;;;;;;;0.43;0.43;;;26.20;49.10;;;;;;5009478;28;20129;-64
2021/08/03 01:32:43;;;;;;;0.28;0.28;;;26.20;49.10;;;;;;5010229;28;20125;-64
2021/08/03 01:35:11;;;;;;;0.10;0.10;;;26.20;49.20;;;;;;5010651;28;20081;-64
2021/08/03 01:37:39;;;;;;;0.63;0.40;;;26.20;49.10;;;;;;5009944;28;20132;-64
2021/08/03 01:40:11;;;;;;;0.60;0.22;;;26.20;49.10;;;;;;5009384;28;20482;-64
2021/08/03 01:42:41;;;;;;;0.30;0.30;;;26.20;49.10;;;;;;5010099;28;20089;-64
2021/08/03 01:45:11;;;;;;;0.35;0.35;;;26.20;49.10;;;;;;5010089;28;20050;-64
2021/08/03 01:47:39;;;;;;;0.38;0.30;;;26.20;49.10;;;;;;5010621;28;20125;-64
2021/08/03 01:50:07;;;;;;;0.38;0.38;;;26.20;49.10;;;;;;5010043;28;20100;-64
2021/08/03 01:52:38;;;;;;;0.30;0.30;;;26.20;49.20;;;;;;5010107;28;20141;-64
2021/08/03 01:55:10;;;;;;;0.50;0.50;;;26.20;49.20;;;;;;5014136;28;20041;-64
2021/08/03 01:57:40;;;;;;;0.38;0.38;;;26.20;49.20;;;;;;5028842;28;20045;-64
2021/08/03 02:00:08;;;;;;;0.35;0.35;;;26.20;49.20;;;;;;5029708;28;20124;-64
2021/08/03 02:02:36;;;;;;;0.30;0.20;;;26.20;49.20;;;;;;5029321;28;20057;-63
2021/08/03 02:05:05;;;;;;;0.20;0.20;;;26.20;49.20;;;;;;5029812;28;20045;-63
2021/08/03 02:07:34;;;;;;;0.40;0.30;;;26.20;49.20;;;;;;5029823;28;20128;-63
2021/08/03 02:10:03;;;;;;;0.40;0.40;;;26.20;49.30;;;;;;5029583;28;20497;-63
2021/08/03 02:12:33;;;;;;;0.40;0.40;;;26.20;49.30;;;;;;5029259;28;20045;-63
2021/08/03 02:15:00;;;;;;;0.25;0.20;;;26.20;49.30;;;;;;5029691;28;20049;-63
2021/08/03 02:17:27;;;;;;;0.30;0.30;;;26.20;49.30;;;;;;5029608;28;20091;-63
2021/08/03 02:19:55;;;;;;;0.25;0.25;;;26.20;49.30;;;;;;5029385;28;20056;-64
2021/08/03 02:22:22;;;;;;;0.30;0.30;;;26.10;49.20;;;;;;5029912;28;20085;-63
2021/08/03 02:24:49;;;;;;;0.93;0.40;;;26.10;49.20;;;;;;5029093;28;20045;-63
2021/08/03 02:27:16;;;;;;;0.22;0.22;;;26.10;49.30;;;;;;5028907;28;20064;-63
2021/08/03 02:29:45;;;;;;;0.30;0.30;;;26.20;49.40;;;;;;5029163;28;20096;-63
2021/08/03 02:32:32;;;;;;;0.30;0.30;;;26.10;49.30;;;;;;5029044;28;20049;-63
2021/08/03 02:35:09;;;;;;;0.50;0.50;;;26.20;49.40;;;;;;5029138;28;20457;-64
2021/08/03 02:37:39;;;;;;;0.20;0.20;;;26.10;49.30;;;;;;5028928;28;20045;-63
2021/08/03 02:40:08;;;;;;;0.38;0.30;;;26.10;49.30;;;;;;5029535;28;20088;-64
2021/08/03 02:42:38;;;;;;;1.65;0.30;;;26.10;49.40;;;;;;5028740;28;20494;-64
2021/08/03 02:45:06;;;;;;;;;;;26.10;49.30;;;;;;5029650;28;20049;-63
2021/08/03 02:47:49;;;;;;;0.50;0.50;;;26.20;49.40;;;;;;5029044;28;19921;-63
2021/08/03 02:50:19;;;;;;;0.30;0.30;;;26.20;49.40;;;;;;5028669;28;20057;-63
2021/08/03 02:52:48;;;;;;;0.47;0.47;;;26.10;49.30;;;;;;5028842;28;20137;-63
2021/08/03 02:55:22;;;;;;;0.30;0.30;;;26.10;49.40;;;;;;5023095;28;20046;-63
2021/08/03 02:57:58;;;;;;;0.95;0.40;;;26.10;49.30;;;;;;5008864;28;20462;-63
2021/08/03 03:00:27;;;;;;;0.30;0.30;;;26.10;49.30;;;;;;5009113;28;20050;-64
2021/08/03 03:02:56;;;;;;;0.20;0.20;;;26.10;49.30;;;;;;5008630;28;20133;-63
2021/08/03 03:05:26;;;;;;;0.20;0.20;;;26.20;49.40;;;;;;5009552;28;20050;-63
2021/08/03 03:08:07;;;;;;;0.20;0.20;;;26.10;49.40;;;;;;5008078;28;20136;-63
2021/08/03 03:10:38;;;;;;;0.32;0.30;;;26.10;49.40;;;;;;5008417;28;20129;-64
2021/08/03 03:13:16;;;;;;;0.30;0.30;;;26.10;49.40;;;;;;5008955;28;20054;-63
2021/08/03 03:15:45;;;;;;;0.38;0.38;;;26.10;49.40;;;;;;5008524;28;20046;-64
2021/08/03 03:18:13;;;;;;;0.57;0.57;;;26.10;49.40;;;;;;5008635;28;20144;-64
2021/08/03 03:20:41;;;;;;;0.25;0.25;;;26.10;49.40;;;;;;5008278;28;20053;-63
2021/08/03 03:23:09;;;;;;;0.63;0.52;;;26.10;49.50;;;;;;5008722;28;20392;-63
2021/08/03 03:25:37;;;;;;;0.30;0.30;;;26.10;49.40;;;;;;5007985;28;20517;-63
2021/08/03 03:28:06;;;;;;;0.20;0.20;;;26.10;49.50;;;;;;5008553;28;20046;-63
2021/08/03 03:30:33;;;;;;;0.30;0.30;;;26.10;49.50;;;;;;5008045;28;20049;-63
2021/08/03 03:33:04;;;;;;;0.20;0.20;;;26.10;49.50;;;;;;5008486;28;20514;-63
2021/08/03 03:35:36;;;;;;;0.30;0.30;;;26.10;49.50;;;;;;5008152;28;20096;-63
2021/08/03 03:38:05;;;;;;;0.20;0.20;;;26.10;49.50;;;;;;5007769;28;20128;-63
2021/08/03 03:40:34;;;;;;;0.30;0.25;;;26.10;49.50;;;;;;5007947;28;20088;-63
2021/08/03 03:43:02;;;;;;;0.20;0.20;;;26.10;49.50;;;;;;5008851;28;20133;-63
2021/08/03 03:45:30;;;;;;;0.30;0.30;;;26.10;49.50;;;;;;5007820;28;20125;-63
2021/08/03 03:48:01;;;;;;;0.85;0.20;;;26.10;49.50;;;;;;5008615;28;20046;-63
2021/08/03 03:50:35;;;;;;;0.30;0.30;;;26.10;49.50;;;;;;5007489;28;20132;-63
2021/08/03 03:53:13;;;;;;;1.88;0.40;;;26.10;49.50;;;;;;5008158;28;20042;-63
2021/08/03 03:55:53;;;;;;;0.30;0.30;;;26.10;49.50;;;;;;5016794;28;20128;-63
2021/08/03 03:58:23;;;;;;;0.52;0.20;;;26.10;49.40;;;;;;5027906;28;20577;-64
2021/08/03 04:00:50;;;;;;;0.30;0.30;;;26.20;49.50;;;;;;5026573;28;20091;-63
2021/08/03 04:03:21;;;;;;;0.20;0.20;;;26.20;49.50;;;;;;5027096;28;20670;-63
2021/08/03 04:05:49;;;;;;;1.92;0.30;;;26.20;49.50;;;;;;5027305;28;20482;-63
2021/08/03 04:08:16;;;;;;;0.20;0.20;;;26.20;49.40;;;;;;5026659;28;20053;-64
2021/08/03 04:10:44;;;;;;;0.20;0.20;;;26.20;49.40;;;;;;5027326;28;20085;-64
2021/08/03 04:13:12;;;;;;;0.30;0.30;;;26.20;49.30;;;;;;5027034;28;20587;-63
2021/08/03 04:15:39;;;;;;;0.40;0.20;;;26.20;49.30;;;;;;5027560;28;20123;-63
2021/08/03 04:18:07;;;;;;;0.30;0.30;;;26.20;49.30;;;;;;5027859;28;20482;-63
2021/08/03 04:20:34;;;;;;;0.40;0.40;;;26.30;49.30;;;;;;5025292;28;20045;-63
2021/08/03 04:23:01;;;;;;;0.20;0.20;;;26.20;49.30;;;;;;5027546;28;20140;-64
2021/08/03 04:25:29;;;;;;;0.30;0.30;;;26.30;49.30;;;;;;5026666;28;20563;-63
2021/08/03 04:27:56;;;;;;;0.40;0.40;;;26.30;49.40;;;;;;5027189;28;20140;-63
2021/08/03 04:30:24;;;;;;;0.40;0.40;;;26.30;49.40;;;;;;5027223;28;20049;-63
2021/08/03 04:32:51;;;;;;;0.55;0.40;;;26.30;49.30;;;;;;5025962;28;20132;-63
2021/08/03 04:35:18;;;;;;;0.43;0.43;;;26.30;49.30;;;;;;5025926;28;20502;-64
2021/08/03 04:37:47;;;;;;;0.38;0.38;;;26.30;49.30;;;;;;5026167;28;20077;-64
2021/08/03 04:40:16;;;;;;;0.40;0.40;;;26.30;49.30;;;;;;5025021;28;20047;-64
2021/08/03 04:42:43;;;;;;;0.32;0.30;;;26.30;49.20;;;;;;5015161;28;20061;-63
2021/08/03 04:45:11;;;;;;;0.52;0.50;;;26.30;49.20;;;;;;5012145;28;20677;-64
2021/08/03 04:47:43;;;;;;;0.40;0.40;;;26.40;49.20;;;;;;5015246;28;21683;-64
2021/08/03 04:50:13;;;;;;;1.35;0.40;;;26.40;49.20;;;;;;5015244;28;20562;-63
2021/08/03 04:52:41;;;;;;;0.70;0.60;;;26.40;49.20;;;;;;5014843;28;20136;-64
2021/08/03 04:55:09;;;;;;;0.50;0.40;;;26.40;49.20;;;;;;5024029;28;20048;-64
2021/08/03 04:57:36;;;;;;;2.28;0.50;;;26.40;49.20;;;;;;5015130;28;20137;-64
2021/08/03 05:00:06;;;;;;;0.45;0.45;;;26.40;49.20;;;;;;5026659;28;20117;-64
2021/08/03 05:02:34;;;;;;;0.32;0.32;;;26.50;49.20;;;;;;5025755;28;20073;-64
2021/08/03 05:05:02;;;;;;;0.40;0.40;;;26.50;49.80;;;;;;5025998;28;20107;-64
2021/08/03 05:07:30;;;;;;;0.30;0.30;;;26.50;49.20;;;;;;5023365;28;20395;-64
2021/08/03 05:10:01;;;;;;;0.60;0.60;;;26.50;49.30;;;;;;5024138;28;20099;-64
2021/08/03 05:12:29;;;;;;;0.50;0.50;;;26.50;49.40;;;;;;5022724;28;20049;-64
2021/08/03 05:15:00;;;;;;;0.50;0.50;;;26.40;49.50;;;;;;5025986;28;20049;-65
2021/08/03 05:17:29;;;;;;;2.05;0.47;;;26.40;49.60;;;;;;5024878;28;20136;-64
2021/08/03 05:19:57;;;;;;;0.55;0.50;;;26.40;49.80;;;;;;5021319;28;20494;-64
2021/08/03 05:22:25;;;;;;;0.57;0.50;;;26.30;50.10;;;;;;5020764;28;20057;-67
2021/08/03 05:24:53;;;;;;;0.63;0.55;;;26.20;50.40;;;;;;5021490;28;20825;-64
2021/08/03 05:27:20;;;;;;;1.02;0.73;;;26.00;50.70;;;;;;5015034;28;20053;-62
2021/08/03 05:29:48;;;;;;;0.70;0.70;;;25.90;51.00;;;;;;5016625;28;20037;-62
2021/08/03 05:32:15;;;;;;;0.60;0.60;;;25.70;51.20;;;;;;5018457;28;20386;-63
2021/08/03 05:34:42;;;;;;;0.88;0.60;;;25.60;51.50;;;;;;5020287;28;20085;-64
2021/08/03 05:37:10;;;;;;;0.70;0.70;;;25.50;51.60;;;;;;5020664;28;20045;-64
2021/08/03 05:39:37;;;;;;;0.65;0.65;;;25.30;51.60;;;;;;5019737;28;20049;-65
2021/08/03 05:42:04;;;;;;;0.60;0.52;;;25.10;51.80;;;;;;5019021;28;20529;-64
2021/08/03 05:44:32;;;;;;;0.98;0.85;;;25.00;52.00;;;;;;5022935;28;20047;-64
2021/08/03 05:47:00;;;;;;;0.98;0.70;;;24.90;52.30;;;;;;5023148;28;20099;-64
2021/08/03 05:49:28;;;;;;;3.40;1.08;;;24.70;52.60;;;;;;5017506;28;20087;-66
2021/08/03 05:52:00;;;;;;;0.60;0.60;;;24.60;52.80;;;;;;5022530;28;20059;-64
2021/08/03 05:54:28;;;;;;;0.85;0.80;;;24.50;53.00;;;;;;5021768;28;20042;-63
2021/08/03 05:56:55;;;;;;;0.82;0.80;;;24.40;53.40;;;;;;5026741;28;20096;-66
2021/08/03 05:59:23;;;;;;;1.00;1.00;;;24.40;53.80;;;;;;5023406;28;20045;-66
2021/08/03 06:01:50;;;;;;;0.70;0.70;;;24.30;54.30;;;;;;5022290;28;20080;-66
2021/08/03 06:04:18;;;;;;;1.15;0.98;;;24.30;54.50;;;;;;5024046;28;20050;-66
2021/08/03 06:06:48;;;;;;;2.42;1.05;;;24.20;54.50;;;;;;5018718;28;20176;-66
2021/08/03 06:09:18;;;;;;;1.88;0.70;;;24.20;54.60;;;;;;5021809;28;20116;-66
2021/08/03 06:11:50;;;;;;;0.98;0.95;;;24.10;54.50;;;;;;5019375;28;20088;-66
2021/08/03 06:14:40;;;;;;;1.20;1.20;;;24.10;54.60;;;;;;5018027;28;20477;-66
2021/08/03 06:17:15;;;;;;;1.15;1.05;;;24.10;54.70;;;;;;5022143;28;20045;-65
2021/08/03 06:19:46;;;;;;;1.65;0.98;;;24.00;54.60;;;;;;5015752;28;20095;-61
2021/08/03 06:22:14;;;;;;;2.33;0.88;;;24.00;54.70;;;;;;5020993;28;20064;-63
2021/08/03 06:24:43;;;;;;;0.85;0.85;;;23.90;54.70;;;;;;5022581;28;20071;-63
2021/08/03 06:27:17;;;;;;;1.80;1.20;;;23.90;54.70;;;;;;5016276;28;20195;-65
2021/08/03 06:29:45;;;;;;;0.93;0.82;;;23.90;55.30;;;;;;5017240;28;20069;-64
2021/08/03 06:32:12;;;;;;;1.95;1.00;;;23.90;55.90;;;;;;5021034;28;20054;-61
2021/08/03 06:34:43;;;;;;;1.00;0.90;;;23.90;56.20;;;;;;5019049;28;20132;-65
2021/08/03 06:37:12;;;;;;;0.82;0.82;;;23.90;56.40;;;;;;5019854;28;20054;-65
2021/08/03 06:39:40;;;;;;;2.30;0.70;;;23.80;56.50;;;;;;5020536;28;20128;-66
2021/08/03 06:42:22;;;;;;;1.50;1.05;;;23.80;56.70;;;;;;5020014;28;20081;-65
2021/08/03 06:44:55;;;;;;;0.82;0.75;;;23.80;56.80;;;;;;5021886;28;20052;-65
2021/08/03 06:47:27;;;;;;;1.15;0.93;;;23.80;56.50;;;;;;5020891;28;20088;-65
2021/08/03 06:49:57;;;;;;;1.85;1.10;;;23.80;56.30;;;;;;5016423;28;20047;-65
2021/08/03 06:52:25;;;;;;;0.75;0.70;;;23.80;56.10;;;;;;5018358;28;20455;-65
2021/08/03 06:55:04;;;;;;;1.00;0.93;;;23.80;55.80;;;;;;5020507;28;20124;-65
2021/08/03 06:57:34;;;;;;;1.57;0.90;;;23.80;55.80;;;;;;5022725;28;20124;-65
2021/08/03 07:00:06;;;;;;;1.95;1.10;;;23.80;55.80;;;;;;5018155;28;20478;-65
2021/08/03 07:02:40;;;;;;;1.48;1.20;;;23.80;55.70;;;;;;5018598;28;20137;-66
2021/08/03 07:05:16;;;;;;;1.05;1.05;;;23.80;55.70;;;;;;5017682;28;20082;-61
2021/08/03 07:07:44;;;;;;;0.65;0.65;;;23.80;56.20;;;;;;5027916;28;20127;-68
2021/08/03 07:10:14;;;;;;;0.90;0.90;;;23.80;56.50;;;;;;5025782;28;20061;-61
2021/08/03 07:12:44;;;;;;;1.30;0.98;;;23.80;56.50;;;;;;5023304;28;20536;-72
2021/08/03 07:15:13;;;;;;;1.08;0.88;;;23.80;56.60;;;;;;5020421;28;20060;-66
2021/08/03 07:17:41;;;;;;;0.90;0.90;;;23.80;56.50;;;;;;5021372;28;20068;-70
2021/08/03 07:20:10;;;;;;;3.50;0.90;;;23.80;56.50;;;;;;5020495;28;20128;-69
2021/08/03 07:22:38;;;;;;;3.00;1.10;;;23.80;56.70;;;;;;5018905;28;20053;-68
2021/08/03 07:25:07;;;;;;;1.40;1.10;;;23.80;56.80;;;;;;5016913;28;20425;-64
2021/08/03 07:27:35;;;;;;;0.82;0.80;;;23.80;56.70;;;;;;5013206;28;20421;-66
2021/08/03 07:30:04;;;;;;;1.15;1.10;;;23.90;56.80;;;;;;5019139;28;20390;-65
2021/08/03 07:32:35;;;;;;;0.70;0.70;;;23.90;56.80;;;;;;5016186;28;20705;-64
2021/08/03 07:35:05;;;;;;;1.10;1.00;;;23.90;56.90;;;;;;5016832;28;20041;-65
2021/08/03 07:37:34;;;;;;;1.33;1.07;;;23.90;57.00;;;;;;5020020;28;20084;-64
2021/08/03 07:40:02;;;;;;;3.90;1.58;;;23.90;57.10;;;;;;5015950;28;20045;-64
2021/08/03 07:42:29;;;;;;;2.10;1.23;;;23.90;57.10;;;;;;5014965;28;20461;-64
2021/08/03 07:44:56;;;;;;;2.25;1.10;;;23.90;57.10;;;;;;5019807;28;20112;-68
2021/08/03 07:47:23;;;;;;;1.15;1.10;;;24.00;57.00;;;;;;5016352;28;20152;-62
2021/08/03 07:49:52;;;;;;;3.47;1.13;;;24.00;56.90;;;;;;5016554;28;20041;-62
2021/08/03 07:52:20;;;;;;;1.23;1.13;;;24.00;56.70;;;;;;5019725;28;20103;-62
2021/08/03 07:54:48;;;;;;;0.82;0.82;;;24.00;56.60;;;;;;5016600;28;20049;-62
2021/08/03 07:57:15;;;;;;;1.00;1.00;;;24.00;56.70;;;;;;5016882;28;20512;-64
2021/08/03 07:59:42;;;;;;;1.33;1.23;;;24.10;56.50;;;;;;5016923;28;20487;-60
2021/08/03 08:02:10;;;;;;;3.42;1.40;;;24.10;56.50;;;;;;5016654;28;20104;-61
2021/08/03 08:04:37;;;;;;;1.48;1.30;;;24.10;56.70;;;;;;5015169;28;20056;-69
2021/08/03 08:07:04;;;;;;;1.77;1.33;;;24.10;56.60;;;;;;5014741;28;20145;-65
2021/08/03 08:09:32;;;;;;;1.73;1.08;;;24.10;57.60;;;;;;5016430;28;20056;-68
2021/08/03 08:12:00;;;;;;;1.42;1.25;;;24.10;57.60;;;;;;5018508;28;20095;-66
2021/08/03 08:14:27;;;;;;;1.10;1.10;;;24.00;58.40;;;;;;5019424;28;20088;-63
2021/08/03 08:16:55;;;;;;;0.80;0.80;;;24.00;58.30;;;;;;5015748;28;20057;-60
2021/08/03 08:19:22;;;;;;;1.17;1.00;;;24.00;58.60;;;;;;5017354;28;20069;-68
2021/08/03 08:21:49;;;;;;;1.20;1.10;;;24.00;58.90;;;;;;5020943;28;20128;-68
2021/08/03 08:24:16;;;;;;;3.13;1.20;;;23.90;58.60;;;;;;5020209;28;20074;-68
2021/08/03 08:26:45;;;;;;;4.05;1.05;;;23.90;58.50;;;;;;5017078;28;20441;-69
2021/08/03 08:29:12;;;;;;;1.00;1.00;;;23.90;58.50;;;;;;5020211;28;20088;-61
2021/08/03 08:31:39;;;;;;;1.02;0.93;;;23.90;58.50;;;;;;5016870;28;20069;-61
2021/08/03 08:34:06;;;;;;;2.60;1.23;;;23.90;58.40;;;;;;5016966;28;20046;-67
2021/08/03 08:36:33;;;;;;;1.30;0.90;;;23.90;58.60;;;;;;5018403;28;20071;-68
2021/08/03 08:39:02;;;;;;;1.17;1.17;;;24.00;58.50;;;;;;5015133;28;20045;-66
2021/08/03 08:41:30;;;;;;;1.95;0.90;;;23.90;58.50;;;;;;5016190;28;20092;-62
2021/08/03 08:43:57;;;;;;;1.30;1.10;;;23.90;58.60;;;;;;5018806;28;20088;-66
2021/08/03 08:46:25;;;;;;;1.80;1.20;;;23.90;58.60;;;;;;5019840;28;20132;-66
2021/08/03 08:48:52;;;;;;;1.05;0.98;;;23.90;58.60;;;;;;5019703;28;20045;-67
2021/08/03 08:51:20;;;;;;;1.00;1.00;;;23.80;58.50;;;;;;5020752;28;20065;-67
2021/08/03 08:53:49;;;;;;;2.70;1.10;;;23.80;58.50;;;;;;5019191;28;20057;-67
2021/08/03 08:56:16;;;;;;;1.15;1.15;;;23.80;58.50;;;;;;5017025;28;20038;-64
2021/08/03 08:58:44;;;;;;;1.38;1.20;;;23.80;58.50;;;;;;5028758;28;20073;-66
2021/08/03 09:01:11;;;;;;;1.30;0.95;;;23.80;58.50;;;;;;5016221;28;20391;-66
2021/08/03 09:03:41;;;;;;;1.58;1.45;;;23.80;58.20;;;;;;5013939;28;20145;-66
2021/08/03 09:06:10;;;;;;;1.45;1.10;;;23.80;58.10;;;;;;5019463;28;20049;-66
2021/08/03 09:08:44;;;;;;;2.25;1.35;;;23.80;58.10;;;;;;5021615;28;20118;-68
2021/08/03 09:11:16;;;;;;;4.30;1.25;;;23.80;58.20;;;;;;5021248;28;20073;-68
2021/08/03 09:13:55;;;;;;;3.05;1.25;;;23.80;58.20;;;;;;5020607;28;20080;-68
2021/08/03 09:16:25;;;;;;;2.15;1.13;;;23.80;58.30;;;;;;5021048;28;20045;-68
2021/08/03 09:18:54;;;;;;;1.83;1.60;;;23.80;58.30;;;;;;5020233;28;20054;-67
2021/08/03 09:21:25;;;;;;;1.25;1.15;;;23.80;58.30;;;;;;5021471;28;20046;-67
2021/08/03 09:23:59;;;;;;;1.75;1.33;;;23.80;58.40;;;;;;5016812;28;20073;-68
2021/08/03 09:26:41;;;;;;;4.22;1.30;;;23.80;58.40;;;;;;5016844;28;20073;-67
2021/08/03 09:29:10;;;;;;;1.42;1.35;;;23.70;58.40;;;;;;5018539;28;20077;-68
2021/08/03 09:31:39;;;;;;;1.35;1.25;;;23.70;58.50;;;;;;5022855;28;20079;-68
2021/08/03 09:34:13;;;;;;;1.20;1.10;;;23.70;58.50;;;;;;5020920;28;20144;-68
2021/08/03 09:36:58;;;;;;;2.33;1.98;;;23.70;58.50;;;;;;5019300;28;20045;-67
2021/08/03 09:39:44;;;;;;;2.28;1.27;;;23.70;58.50;;;;;;5018454;28;20124;-67
2021/08/03 09:42:14;;;;;;;2.15;1.17;;;23.70;58.50;;;;;;5015009;28;20163;-67
2021/08/03 09:44:58;;;;;;;1.15;1.00;;;23.70;58.60;;;;;;5017002;28;20085;-67
2021/08/03 09:47:32;;;;;;;1.40;1.30;;;23.70;59.00;;;;;;5018735;28;20075;-67
2021/08/03 09:50:01;;;;;;;1.75;0.93;;;23.70;58.50;;;;;;5020034;28;20080;-67
2021/08/03 09:52:31;;;;;;;0.90;0.90;;;23.70;58.40;;;;;;5021636;28;20052;-66
2021/08/03 09:55:20;;;;;;;1.15;1.08;;;23.80;58.40;;;;;;5019558;28;20554;-67
2021/08/03 09:57:47;;;;;;;0.93;0.93;;;23.80;58.40;;;;;;5021215;28;20509;-67
2021/08/03 10:00:34;;;;;;;1.13;0.98;;;23.80;58.20;;;;;;5021477;28;20142;-68
2021/08/03 10:03:06;;;;;;;1.17;1.08;;;23.80;58.20;;;;;;5019695;28;20053;-68
2021/08/03 10:05:34;;;;;;;0.80;0.80;;;23.80;58.10;;;;;;5014876;28;20053;-68
2021/08/03 10:08:02;;;;;;;0.95;0.95;;;23.80;58.10;;;;;;5023590;28;20041;-68
2021/08/03 10:10:30;;;;;;;3.97;1.20;;;23.80;58.00;;;;;;5018176;28;20132;-69
2021/08/03 10:12:58;;;;;;;1.98;1.05;;;23.80;58.00;;;;;;5023777;28;20083;-68
2021/08/03 10:15:25;;;;;;;1.05;0.93;;;23.80;57.90;;;;;;5021517;28;20096;-68
2021/08/03 10:17:53;;;;;;;1.27;1.17;;;23.80;57.70;;;;;;5022510;28;20114;-67
2021/08/03 10:20:20;;;;;;;4.22;0.95;;;23.80;57.80;;;;;;5020495;28;20140;-68
2021/08/03 10:23:04;;;;;;;1.05;1.05;;;23.80;57.60;;;;;;5019235;28;20049;-68
2021/08/03 10:25:36;;;;;;;0.95;0.95;;;23.80;57.70;;;;;;5021821;28;20112;-68
2021/08/03 10:28:25;;;;;;;2.15;0.90;;;23.80;57.70;;;;;;5021565;28;20494;-68
2021/08/03 10:30:54;;;;;;;0.95;0.95;;;23.80;57.70;;;;;;5017360;28;20124;-67
2021/08/03 10:33:41;;;;;;;0.75;0.75;;;23.80;57.70;;;;;;5017140;28;20089;-65
2021/08/03 10:36:09;;;;;;;2.80;1.30;;;23.80;57.80;;;;;;5016116;28;20132;-65
2021/08/03 10:38:36;;;;;;;1.45;1.15;;;23.80;57.80;;;;;;5016378;28;20148;-69
2021/08/03 10:41:06;;;;;;;1.55;0.90;;;23.80;57.90;;;;;;5018318;28;20129;-69
2021/08/03 10:43:41;;;;;;;0.95;0.90;;;23.80;57.90;;;;;;5017625;28;20136;-69
2021/08/03 10:46:32;;;;;;;2.13;1.20;;;23.80;57.90;;;;;;5019694;28;20100;-67
2021/08/03 10:48:59;;;;;;;1.45;1.17;;;23.80;57.90;;;;;;5017075;28;20060;-68
2021/08/03 10:51:37;;;;;;;0.70;0.70;;;23.80;57.80;;;;;;5013671;28;20064;-68
2021/08/03 10:54:07;;;;;;;1.27;1.00;;;23.90;57.90;;;;;;5017237;28;20746;-65
2021/08/03 10:57:14;;;;;;;3.13;1.00;;;23.90;57.90;;;;;;5021580;28;20049;-68
2021/08/03 10:59:42;;;;;;;1.50;1.00;;;23.90;57.70;;;;;;5015158;28;20042;-67
2021/08/03 11:02:42;;;;;;;3.47;1.23;;;23.90;57.60;;;;;;5019572;28;20136;-67
2021/08/03 11:05:24;;;;;;;;;;;23.90;57.40;;;;;;5020049;28;20096;-67
2021/08/03 11:07:51;;;;;;;5.13;1.30;;;23.90;57.40;;;;;;5020800;28;19932;-65
2021/08/03 11:10:37;;;;;;;1.67;1.27;;;23.90;57.40;;;;;;5018329;28;20394;-68
2021/08/03 11:13:04;;;;;;;1.50;1.40;;;23.90;57.50;;;;;;5019057;28;20133;-69
2021/08/03 11:15:35;;;;;;;1.33;1.20;;;23.90;57.50;;;;;;5018689;28;20084;-69
2021/08/03 11:18:10;;;;;;;;;;;23.90;57.50;;;;;;5020401;28;20742;-68
2021/08/03 11:20:59;;;;;;;1.55;1.42;;;23.90;57.50;;;;;;5013795;28;19921;-68
2021/08/03 11:24:06;;;;;;;3.10;1.58;;;23.90;57.40;;;;;;5015396;28;20481;-68
2021/08/03 11:26:39;;;;;;;3.88;1.75;;;23.90;57.40;;;;;;5021932;28;20116;-66
2021/08/03 11:29:15;;;;;;;1.85;1.17;;;23.90;57.80;;;;;;5021564;28;20132;-65
2021/08/03 11:31:51;;;;;;;1.13;1.00;;;23.90;58.00;;;;;;5018869;28;20049;-65
2021/08/03 11:34:31;;;;;;;1.25;1.17;;;23.90;58.10;;;;;;5016909;28;20527;-65
2021/08/03 11:37:04;;;;;;;1.55;1.13;;;23.90;58.30;;;;;;5011227;28;20626;-61
2021/08/03 11:39:38;;;;;;;1.35;0.82;;;23.90;58.40;;;;;;5016660;28;20502;-64
2021/08/03 11:42:07;;;;;;;2.65;1.60;;;23.90;58.50;;;;;;5019052;28;20053;-63
2021/08/03 11:44:35;;;;;;;3.40;1.20;;;23.90;58.70;;;;;;5021236;28;20141;-66
2021/08/03 11:47:09;;;;;;;1.92;1.30;;;23.90;58.60;;;;;;5013889;28;20053;-66
2021/08/03 11:49:45;;;;;;;1.08;1.08;;;23.90;58.60;;;;;;5017938;28;20512;-62
2021/08/03 11:52:20;;;;;;;1.88;1.75;;;24.00;58.60;;;;;;5016793;28;20088;-69
2021/08/03 11:54:50;;;;;;;1.02;0.90;;;24.00;58.40;;;;;;5021796;28;20558;-68
2021/08/03 11:57:39;;;;;;;1.35;1.25;;;24.00;58.20;;;;;;5019787;28;20045;-65
2021/08/03 12:00:21;;;;;;;1.42;1.33;;;24.10;58.30;;;;;;5020993;28;20084;-65
2021/08/03 12:02:51;;;;;;;1.00;1.00;;;24.10;58.30;;;;;;5021009;28;20038;-65
2021/08/03 12:05:23;;;;;;;0.90;0.90;;;24.10;58.10;;;;;;5023974;28;20103;-61
2021/08/03 12:08:04;;;;;;;1.52;1.40;;;24.20;58.10;;;;;;5021899;28;20065;-62
2021/08/03 12:10:41;;;;;;;1.65;1.55;;;24.20;57.90;;;;;;5021462;28;20115;-61
2021/08/03 12:13:11;;;;;;;1.42;1.33;;;24.20;57.70;;;;;;5019010;28;20060;-60
2021/08/03 12:15:48;;;;;;;2.63;1.17;;;24.20;58.30;;;;;;5019393;28;20386;-63
2021/08/03 12:18:16;;;;;;;1.30;1.20;;;24.30;57.70;;;;;;5019388;28;20061;-63
2021/08/03 12:20:57;;;;;;;1.08;0.90;;;24.50;57.10;;;;;;5017370;28;20664;-67
2021/08/03 12:23:30;;;;;;;3.15;1.60;;;24.80;56.30;;;;;;5016065;28;20104;-64
2021/08/03 12:26:07;;;;;;;3.55;1.60;;;25.10;55.50;;;;;;5017812;28;20136;-64
2021/08/03 12:28:44;;;;;;;3.10;1.48;;;25.40;54.70;;;;;;5017471;28;20518;-67
2021/08/03 12:31:32;;;;;;;5.22;1.50;;;25.70;54.00;;;;;;5019606;28;20049;-64
2021/08/03 12:34:18;;;;;;;6.38;1.38;;;26.00;53.40;;;;;;5024033;28;20042;-67
2021/08/03 12:36:53;;;;;;;1.88;1.30;;;26.30;52.70;;;;;;5021793;28;20128;-66
2021/08/03 12:39:28;;;;;;;2.53;1.30;;;26.50;52.10;;;;;;5014348;28;20080;-66
2021/08/03 12:42:33;;;;;;;17.48;1.88;;;26.60;51.60;;;;;;5014814;28;20060;-64
2021/08/03 12:45:14;;;;;;;4.88;1.30;;;26.80;51.00;;;;;;5016963;28;20129;-67
2021/08/03 12:47:54;;;;;;;2.40;1.67;;;27.00;50.70;;;;;;5018961;28;20045;-64
2021/08/03 12:50:22;;;;;;;1.73;1.30;;;27.10;50.30;;;;;;5019349;28;20054;-61
2021/08/03 12:52:54;;;;;;;1.10;1.00;;;27.30;50.00;;;;;;5017874;28;20473;-67
2021/08/03 12:55:31;;;;;;;1.73;1.17;;;27.30;49.70;;;;;;5024596;28;20799;-65
2021/08/03 12:57:59;;;;;;;1.35;1.20;;;27.40;49.50;;;;;;5028475;28;20104;-66
2021/08/03 13:00:29;;;;;;;2.55;1.27;;;27.50;49.20;;;;;;5016822;28;20216;-65
2021/08/03 13:02:57;;;;;;;2.63;1.30;;;27.60;49.00;;;;;;5021650;28;20054;-61
2021/08/03 13:05:25;;;;;;;0.88;0.88;;;27.60;49.00;;;;;;5020586;28;20417;-58
2021/08/03 13:07:52;;;;;;;1.70;1.15;;;27.70;48.90;;;;;;5020939;28;20137;-59
2021/08/03 13:10:19;;;;;;;2.30;1.20;;;27.70;48.80;;;;;;5017721;28;20128;-64